Atalaya, Peru
Current Conditions -  °F | °C
As of 6:00 PM on Monday 20 Oct 2014 (Local Time) from SPHO Reporting Station
Overcast Overcast  
Wind Chill: 64°   Ceiling: 4600
Heat Index: 64°   Visibility: 6mi
Dew Point: 52°   Wind: 6mph
Humidity: 64%   Direction: 230°SW
Pressure: 30.24"   Gusts: NA
Location:  10.74°S, 73.76°W
Report Text: SPHO 202300Z 23005KT 9999 OVC046 18/11 Q1024 RMK PP000
Loading
Personal Weather Stations






























Interactive Weather Map
Tropical Storm Tracking
New forecast layout! Learn more

10-Day Weather Forecast

Advertisements
Track Severe Weather on mobile